Time;durP1;ratioP1;P1;durP2;ratioP2;P2;SDS_P1;SDS_P2;PMS_P1;PMS_P2;Temp;Humidity;BMP_temperature;BMP_pressure;BME280_temperature;BME280_humidity;BME280_pressure;Samples;Min_cycle;Max_cycle;Signal;HPM_P1;HPM_P2
2022/09/27 00:00:59;;;;;;;6.90;1.53;;;10.90;99.90;;;;;;5083793;28;20330;-72
2022/09/27 00:03:28;;;;;;;6.23;1.17;;;10.90;99.90;;;;;;5065409;28;20216;-73
2022/09/27 00:06:07;;;;;;;6.17;1.10;;;11.00;99.90;;;;;;5077089;28;20203;-73
2022/09/27 00:08:35;;;;;;;2.33;1.20;;;10.90;99.90;;;;;;5076065;28;20235;-74
2022/09/27 00:11:12;;;;;;;8.27;2.23;;;10.90;99.90;;;;;;5077914;28;20235;-74
2022/09/27 00:13:39;;;;;;;4.00;1.17;;;11.00;99.90;;;;;;5074018;28;20297;-74
2022/09/27 00:16:06;;;;;;;3.30;1.23;;;10.90;99.90;;;;;;5081395;28;20218;-73
2022/09/27 00:18:33;;;;;;;3.97;1.10;;;10.90;99.90;;;;;;5080354;28;20235;-73
2022/09/27 00:21:09;;;;;;;2.93;1.00;;;10.90;99.90;;;;;;5064265;28;20212;-73
2022/09/27 00:23:37;;;;;;;2.07;1.00;;;10.90;99.90;;;;;;5083292;28;20210;-73
2022/09/27 00:26:05;;;;;;;3.63;1.20;;;10.90;99.90;;;;;;5061639;28;20247;-73
2022/09/27 00:28:33;;;;;;;6.30;1.00;;;10.90;99.90;;;;;;5079180;28;20204;-74
2022/09/27 00:31:00;;;;;;;4.73;1.53;;;10.90;99.90;;;;;;5082049;28;20223;-73
2022/09/27 00:33:31;;;;;;;6.87;1.93;;;10.90;99.90;;;;;;5078732;28;20763;-74
2022/09/27 00:36:05;;;;;;;3.27;1.03;;;10.90;99.90;;;;;;5075967;28;20242;-72
2022/09/27 00:38:32;;;;;;;2.43;1.10;;;10.80;99.90;;;;;;5077880;28;20248;-73
2022/09/27 00:40:59;;;;;;;4.00;1.20;;;10.80;99.90;;;;;;5085095;28;20286;-73
2022/09/27 00:43:41;;;;;;;6.10;1.40;;;10.80;99.90;;;;;;5055625;28;20203;-72
2022/09/27 00:46:11;;;;;;;5.33;1.60;;;10.80;99.90;;;;;;5073427;28;20231;-72
2022/09/27 00:48:38;;;;;;;4.53;1.07;;;10.70;99.90;;;;;;5080811;28;20199;-73
2022/09/27 00:51:08;;;;;;;5.67;1.67;;;10.70;99.90;;;;;;5079219;28;20210;-74
2022/09/27 00:53:50;;;;;;;7.53;1.03;;;10.90;99.90;;;;;;5076864;28;20568;-73
2022/09/27 00:56:23;;;;;;;3.87;0.83;;;10.70;99.90;;;;;;5077524;28;20215;-72
2022/09/27 00:58:58;;;;;;;4.83;1.20;;;10.70;99.90;;;;;;5078418;28;20262;-71
2022/09/27 01:01:25;;;;;;;1.40;0.77;;;10.70;99.90;;;;;;5061115;28;20212;-72
2022/09/27 01:04:05;;;;;;;2.73;0.80;;;10.60;99.90;;;;;;5075861;28;20214;-73
2022/09/27 01:06:33;;;;;;;3.23;0.80;;;10.60;99.90;;;;;;5078420;28;20204;-72
2022/09/27 01:09:00;;;;;;;2.00;0.90;;;10.60;99.90;;;;;;5079305;28;20257;-73
2022/09/27 01:11:53;;;;;;;4.67;0.80;;;10.60;99.90;;;;;;5061455;28;20389;-73
2022/09/27 01:14:28;;;;;;;3.43;1.07;;;10.60;99.90;;;;;;5076235;28;20298;-72
2022/09/27 01:17:33;;;;;;;1.57;0.80;;;10.60;99.90;;;;;;5062609;28;20222;-72
2022/09/27 01:20:18;;;;;;;3.03;0.70;;;10.60;99.90;;;;;;5062781;28;20235;-74
2022/09/27 01:22:51;;;;;;;2.47;0.70;;;10.60;99.90;;;;;;5060538;28;20215;-73
2022/09/27 01:25:37;;;;;;;4.00;1.03;;;10.60;99.90;;;;;;5078318;28;20207;-74
2022/09/27 01:28:21;;;;;;;1.33;0.70;;;10.50;99.90;;;;;;5055172;28;20222;-73
2022/09/27 01:31:12;;;;;;;4.80;0.80;;;10.50;99.90;;;;;;5075584;28;20218;-73
2022/09/27 01:33:57;;;;;;;2.73;0.80;;;10.50;99.90;;;;;;5073437;28;20243;-74
2022/09/27 01:36:33;;;;;;;1.50;0.70;;;10.50;99.90;;;;;;5062501;28;20244;-73
2022/09/27 01:39:33;;;;;;;1.97;0.50;;;10.50;99.90;;;;;;5076220;28;20223;-73
2022/09/27 01:42:58;;;;;;;2.17;1.00;;;10.50;99.90;;;;;;5079252;28;20294;-73
2022/09/27 01:45:57;;;;;;;1.53;0.60;;;10.50;99.90;;;;;;4973097;28;20577;-73
2022/09/27 01:48:31;;;;;;;2.30;0.50;;;10.40;99.90;;;;;;4974156;28;20206;-72
2022/09/27 01:51:16;;;;;;;1.53;0.70;;;10.40;99.90;;;;;;5054616;28;20205;-74
2022/09/27 01:53:47;;;;;;;1.27;0.60;;;10.30;99.90;;;;;;5058731;28;20257;-73
2022/09/27 01:56:25;;;;;;;1.93;0.70;;;10.30;99.90;;;;;;5074168;28;20239;-73
2022/09/27 01:59:02;;;;;;;1.60;0.63;;;10.30;99.90;;;;;;5055162;28;20238;-73
2022/09/27 02:01:30;;;;;;;2.17;0.60;;;10.20;99.90;;;;;;5056599;28;20308;-73
2022/09/27 02:04:00;;;;;;;0.60;0.57;;;10.10;99.90;;;;;;5074507;28;20244;-74
2022/09/27 02:06:37;;;;;;;5.03;0.90;;;10.10;99.90;;;;;;5076982;28;20202;-73
2022/09/27 02:09:18;;;;;;;3.47;1.20;;;10.10;99.90;;;;;;5063060;28;20204;-74
2022/09/27 02:11:54;;;;;;;2.07;0.77;;;10.10;99.90;;;;;;5080121;28;20248;-73
2022/09/27 02:14:39;;;;;;;2.97;0.97;;;10.00;99.90;;;;;;5059053;28;20645;-73
2022/09/27 02:17:27;;;;;;;5.63;1.53;;;10.00;99.90;;;;;;5059755;28;20589;-73
2022/09/27 02:20:04;;;;;;;4.87;1.37;;;10.00;99.90;;;;;;5077590;28;20328;-72
2022/09/27 02:22:35;;;;;;;5.57;1.13;;;10.00;99.90;;;;;;5080799;28;20205;-72
2022/09/27 02:25:11;;;;;;;3.00;1.00;;;10.00;99.90;;;;;;5076485;28;20297;-73
2022/09/27 02:28:00;;;;;;;5.27;1.20;;;9.90;99.90;;;;;;5080930;28;20270;-73
2022/09/27 02:30:27;;;;;;;3.23;2.40;;;9.90;99.90;;;;;;5034177;28;20668;-73
2022/09/27 02:32:54;;;;;;;6.67;1.60;;;9.90;99.90;;;;;;5082727;28;20301;-73
2022/09/27 02:35:28;;;;;;;6.87;2.03;;;9.90;99.90;;;;;;5066159;28;20299;-73
2022/09/27 02:37:57;;;;;;;3.47;1.57;;;9.90;99.90;;;;;;5074922;28;20265;-74
2022/09/27 02:40:28;;;;;;;3.60;1.50;;;9.80;99.90;;;;;;5062359;28;20850;-72
2022/09/27 02:42:56;;;;;;;4.33;1.43;;;9.80;99.90;;;;;;5076248;28;20368;-73
2022/09/27 02:45:25;;;;;;;6.13;1.87;;;9.80;99.90;;;;;;5079543;28;20607;-73
2022/09/27 02:47:55;;;;;;;5.67;1.90;;;9.70;99.90;;;;;;5079270;28;20772;-73
2022/09/27 02:50:43;;;;;;;2.20;1.53;;;9.70;99.90;;;;;;5078417;28;20258;-74
2022/09/27 02:53:24;;;;;;;6.13;1.60;;;9.70;99.90;;;;;;5067666;28;20276;-72
2022/09/27 02:56:09;;;;;;;7.73;1.90;;;9.70;99.90;;;;;;5073720;28;20279;-72
2022/09/27 02:58:47;;;;;;;7.77;1.33;;;9.70;99.90;;;;;;5057348;28;20296;-73
2022/09/27 03:01:33;;;;;;;5.93;1.97;;;9.60;99.90;;;;;;5082078;28;20248;-72
2022/09/27 03:04:20;;;;;;;5.23;2.10;;;9.60;99.90;;;;;;5080289;28;20235;-73
2022/09/27 03:06:47;;;;;;;5.47;2.30;;;9.60;99.90;;;;;;5067322;28;20244;-73
2022/09/27 03:09:23;;;;;;;10.87;2.70;;;9.60;99.90;;;;;;5078062;28;20207;-72
2022/09/27 03:11:49;;;;;;;10.10;2.27;;;9.60;99.90;;;;;;5081150;28;20201;-73
2022/09/27 03:14:16;;;;;;;4.67;2.10;;;9.60;99.90;;;;;;5078667;28;20344;-73
2022/09/27 03:16:43;;;;;;;3.57;2.20;;;9.60;99.90;;;;;;5076420;28;20255;-73
2022/09/27 03:19:10;;;;;;;6.10;2.10;;;9.50;99.90;;;;;;5073257;28;20286;-74
2022/09/27 03:21:38;;;;;;;6.23;2.47;;;9.50;99.90;;;;;;5083189;28;20287;-73
2022/09/27 03:24:05;;;;;;;5.80;2.30;;;9.50;99.90;;;;;;5077973;28;20214;-73
2022/09/27 03:26:32;;;;;;;5.27;2.27;;;9.50;99.90;;;;;;5077802;28;20209;-73
2022/09/27 03:28:58;;;;;;;7.73;2.47;;;9.50;99.90;;;;;;5074498;28;20293;-74
2022/09/27 03:31:25;;;;;;;8.53;2.17;;;9.50;99.90;;;;;;5079282;28;20705;-72
2022/09/27 03:33:52;;;;;;;6.70;2.50;;;9.50;99.90;;;;;;5076694;28;20275;-73
2022/09/27 03:36:19;;;;;;;5.00;1.97;;;9.40;99.90;;;;;;5079365;28;20265;-73
2022/09/27 03:38:46;;;;;;;3.57;1.80;;;9.40;99.90;;;;;;5066846;28;20208;-73
2022/09/27 03:41:13;;;;;;;6.37;2.10;;;9.40;99.90;;;;;;5079025;28;20242;-74
2022/09/27 03:43:40;;;;;;;7.10;2.10;;;9.30;99.90;;;;;;5076765;28;20208;-74
2022/09/27 03:46:06;;;;;;;8.40;2.10;;;9.20;99.90;;;;;;5062455;28;20221;-73
2022/09/27 03:48:33;;;;;;;4.30;1.97;;;9.30;99.90;;;;;;5077858;28;20207;-73
2022/09/27 03:51:00;;;;;;;4.00;1.90;;;9.30;99.90;;;;;;5080200;28;20746;-72
2022/09/27 03:53:27;;;;;;;6.27;2.00;;;9.20;99.90;;;;;;5079871;28;20581;-72
2022/09/27 03:55:54;;;;;;;4.73;1.70;;;9.20;99.90;;;;;;5078569;28;20275;-72
2022/09/27 03:58:21;;;;;;;6.20;2.10;;;9.30;99.90;;;;;;5076057;28;20215;-72
2022/09/27 04:00:48;;;;;;;5.30;2.10;;;9.20;99.90;;;;;;5074408;28;20783;-73
2022/09/27 04:03:16;;;;;;;7.67;1.97;;;9.10;99.90;;;;;;5076312;28;20207;-74
2022/09/27 04:05:43;;;;;;;11.37;2.00;;;9.50;99.90;;;;;;5078628;28;20287;-73
2022/09/27 04:08:10;;;;;;;8.50;2.20;;;9.10;99.90;;;;;;5073872;28;20764;-73
2022/09/27 04:10:38;;;;;;;6.87;2.10;;;9.10;99.90;;;;;;5075386;28;20193;-74
2022/09/27 04:13:05;;;;;;;8.83;2.00;;;9.10;99.90;;;;;;5073018;28;20261;-72
2022/09/27 04:15:36;;;;;;;8.73;2.57;;;9.00;99.90;;;;;;5064124;28;20581;-74
2022/09/27 04:18:03;;;;;;;8.57;2.07;;;9.00;99.90;;;;;;5063619;28;20231;-72
2022/09/27 04:20:31;;;;;;;10.00;2.70;;;9.00;99.90;;;;;;5074159;28;20360;-74
2022/09/27 04:22:58;;;;;;;12.30;2.63;;;9.00;99.90;;;;;;5076457;28;20201;-73
2022/09/27 04:25:24;;;;;;;11.83;2.70;;;9.00;99.90;;;;;;5078722;28;20204;-73
2022/09/27 04:27:54;;;;;;;9.80;2.50;;;9.00;99.90;;;;;;5075042;28;20195;-73
2022/09/27 04:30:21;;;;;;;12.27;2.50;;;9.00;99.90;;;;;;5075057;28;20243;-74
2022/09/27 04:32:48;;;;;;;11.07;2.80;;;9.00;99.90;;;;;;5072752;28;20247;-72
2022/09/27 04:38:01;;;;;;;6.57;2.50;;;8.90;99.90;;;;;;5074283;28;20303;-73
2022/09/27 04:40:29;;;;;;;9.17;2.33;;;8.90;99.90;;;;;;5067329;28;20627;-73
2022/09/27 04:42:56;;;;;;;9.47;3.37;;;8.90;99.90;;;;;;5077263;28;20249;-73
2022/09/27 04:45:23;;;;;;;12.37;2.70;;;8.90;99.90;;;;;;5080141;28;20246;-73
2022/09/27 04:47:50;;;;;;;10.37;2.70;;;8.90;99.90;;;;;;5075747;28;20244;-73
2022/09/27 04:50:18;;;;;;;11.30;2.40;;;8.90;99.90;;;;;;5080001;28;20311;-73
2022/09/27 04:52:53;;;;;;;7.07;2.33;;;9.00;99.90;;;;;;5080343;28;20207;-74
2022/09/27 04:55:20;;;;;;;7.30;2.30;;;8.90;99.90;;;;;;5084556;28;20235;-73
2022/09/27 04:57:48;;;;;;;6.10;2.07;;;8.90;99.90;;;;;;5080007;28;20326;-74
2022/09/27 05:00:16;;;;;;;5.43;2.20;;;8.90;99.90;;;;;;5083937;28;20228;-72
2022/09/27 05:02:44;;;;;;;7.63;2.40;;;8.90;99.90;;;;;;5074909;28;20684;-73
2022/09/27 05:05:11;;;;;;;11.10;2.93;;;8.80;99.90;;;;;;5062684;28;20209;-72
2022/09/27 05:07:38;;;;;;;9.40;2.50;;;8.80;99.90;;;;;;5076980;28;20731;-73
2022/09/27 05:10:06;;;;;;;12.80;3.03;;;8.70;99.90;;;;;;5064049;28;20687;-72
2022/09/27 05:12:34;;;;;;;10.70;2.27;;;8.70;99.90;;;;;;5073837;28;20299;-72
2022/09/27 05:15:02;;;;;;;7.67;2.20;;;8.70;99.90;;;;;;5074708;28;20200;-73
2022/09/27 05:17:29;;;;;;;11.30;2.70;;;8.70;99.90;;;;;;5065385;28;20797;-73
2022/09/27 05:19:56;;;;;;;7.00;3.53;;;8.70;99.90;;;;;;5071542;28;20313;-72
2022/09/27 05:22:23;;;;;;;10.07;2.97;;;8.60;99.90;;;;;;5081310;28;20281;-73
2022/09/27 05:24:50;;;;;;;11.27;2.70;;;8.70;99.90;;;;;;5084045;28;20274;-72
2022/09/27 05:27:17;;;;;;;8.53;2.57;;;8.70;99.90;;;;;;5077476;28;20645;-73
2022/09/27 05:29:45;;;;;;;7.87;2.50;;;8.60;99.90;;;;;;5073950;28;20608;-72
2022/09/27 05:32:12;;;;;;;9.50;2.93;;;8.60;99.90;;;;;;5060472;28;20261;-72
2022/09/27 05:34:40;;;;;;;7.17;2.53;;;8.60;99.90;;;;;;5076125;28;20285;-71
2022/09/27 05:37:07;;;;;;;11.70;2.90;;;8.60;99.90;;;;;;5071359;28;20235;-71
2022/09/27 05:39:35;;;;;;;12.97;2.67;;;8.50;99.90;;;;;;5077665;28;20614;-72
2022/09/27 05:42:03;;;;;;;9.33;2.70;;;8.50;99.90;;;;;;5076785;28;20755;-71
2022/09/27 05:44:30;;;;;;;10.60;3.87;;;8.50;99.90;;;;;;5073664;28;20214;-72
2022/09/27 05:47:02;;;;;;;8.80;2.80;;;8.50;99.90;;;;;;5076204;28;20622;-71
2022/09/27 05:49:29;;;;;;;6.30;2.20;;;8.50;99.90;;;;;;5074131;28;20210;-72
2022/09/27 05:51:56;;;;;;;12.73;3.73;;;8.50;99.90;;;;;;5076667;28;20343;-73
2022/09/27 05:54:23;;;;;;;13.17;2.90;;;8.40;99.90;;;;;;5060264;28;20301;-72
2022/09/27 05:56:57;;;;;;;10.77;2.30;;;8.50;99.90;;;;;;5075430;28;20332;-73
2022/09/27 05:59:27;;;;;;;7.77;2.70;;;8.60;99.90;;;;;;5067591;28;20325;-72
2022/09/27 06:01:54;;;;;;;8.53;2.10;;;8.50;99.90;;;;;;5080401;28;20316;-73
2022/09/27 06:04:21;;;;;;;9.67;2.17;;;8.50;99.90;;;;;;5063674;28;20200;-74
2022/09/27 06:06:48;;;;;;;6.03;2.10;;;8.70;99.90;;;;;;5067783;28;20333;-74
2022/09/27 06:09:16;;;;;;;5.87;2.40;;;8.60;99.90;;;;;;5087886;28;20653;-73
2022/09/27 06:11:45;;;;;;;9.87;2.30;;;8.60;99.90;;;;;;5080686;28;20210;-73
2022/09/27 06:14:12;;;;;;;5.43;2.70;;;8.80;99.90;;;;;;5084683;28;20298;-72
2022/09/27 06:16:39;;;;;;;11.87;3.53;;;8.70;99.90;;;;;;5065300;28;20220;-72
2022/09/27 06:19:09;;;;;;;7.93;2.90;;;8.70;99.90;;;;;;5084010;28;20196;-71
2022/09/27 06:21:36;;;;;;;7.30;2.90;;;8.80;99.90;;;;;;5085896;28;20624;-73
2022/09/27 06:24:03;;;;;;;7.03;2.93;;;8.80;99.90;;;;;;5063192;28;20196;-71
2022/09/27 06:26:32;;;;;;;12.90;2.93;;;8.80;99.90;;;;;;5084851;28;20234;-72
2022/09/27 06:29:10;;;;;;;9.90;3.37;;;8.90;99.90;;;;;;5086017;28;20846;-71
2022/09/27 06:31:40;;;;;;;13.30;3.30;;;8.90;99.90;;;;;;5085282;28;20212;-73
2022/09/27 06:34:07;;;;;;;13.70;3.40;;;8.90;99.90;;;;;;5084051;28;20616;-73
2022/09/27 06:36:34;;;;;;;11.93;3.30;;;9.20;99.90;;;;;;5070269;28;20203;-72
2022/09/27 06:39:01;;;;;;;10.80;3.17;;;9.20;99.90;;;;;;5065483;28;20219;-73
2022/09/27 06:41:28;;;;;;;6.63;3.23;;;9.40;99.90;;;;;;5080209;28;20646;-73
2022/09/27 06:44:01;;;;;;;6.37;2.60;;;9.50;99.90;;;;;;5083033;28;20285;-72
2022/09/27 06:46:28;;;;;;;5.50;2.03;;;9.70;99.90;;;;;;5079896;28;20580;-73
2022/09/27 06:48:55;;;;;;;8.77;2.73;;;9.80;99.90;;;;;;5064001;28;20208;-73
2022/09/27 06:51:22;;;;;;;5.70;2.20;;;9.70;99.90;;;;;;5064978;28;20330;-71
2022/09/27 06:53:49;;;;;;;6.27;2.30;;;9.70;99.90;;;;;;5077374;28;20285;-71
2022/09/27 06:56:16;;;;;;;10.00;2.90;;;9.70;99.90;;;;;;5082855;28;20199;-72
2022/09/27 07:01:29;;;;;;;6.97;2.70;;;9.80;99.90;;;;;;5081329;28;20236;-73
2022/09/27 07:03:57;;;;;;;8.50;3.53;;;9.80;99.90;;;;;;5078249;28;20556;-72
2022/09/27 07:06:24;;;;;;;7.70;2.70;;;9.80;99.90;;;;;;5082312;28;20252;-72
2022/09/27 07:08:52;;;;;;;7.17;2.70;;;9.80;99.90;;;;;;5064162;28;20749;-72
2022/09/27 07:11:25;;;;;;;9.70;3.30;;;9.80;99.90;;;;;;5067226;28;20336;-72
2022/09/27 07:13:52;;;;;;;6.10;2.60;;;9.90;99.90;;;;;;5076785;28;20717;-73
2022/09/27 07:16:18;;;;;;;11.03;3.03;;;10.10;99.90;;;;;;5083680;28;20222;-74
2022/09/27 07:18:48;;;;;;;9.67;3.20;;;10.10;99.90;;;;;;5084330;28;20285;-73
2022/09/27 07:21:15;;;;;;;8.33;2.53;;;10.00;99.90;;;;;;5080223;28;20626;-72
2022/09/27 07:23:42;;;;;;;8.50;3.20;;;10.40;99.90;;;;;;5070629;28;20290;-72
2022/09/27 07:26:10;;;;;;;7.27;3.00;;;10.40;99.90;;;;;;5082428;28;20207;-72
2022/09/27 07:28:37;;;;;;;8.70;3.20;;;10.50;99.90;;;;;;5084499;28;20257;-72
2022/09/27 07:31:06;;;;;;;7.00;2.77;;;10.60;99.90;;;;;;5077719;28;20216;-73
2022/09/27 07:33:33;;;;;;;6.10;2.97;;;10.50;99.90;;;;;;5077765;28;20259;-73
2022/09/27 07:36:05;;;;;;;6.73;2.40;;;;;;;;;;5078680;28;20244;-72
2022/09/27 07:38:32;;;;;;;5.90;2.50;;;10.70;99.90;;;;;;5063344;28;20287;-73
2022/09/27 07:41:05;;;;;;;8.23;2.60;;;10.70;99.90;;;;;;5079791;28;20223;-70
2022/09/27 07:43:32;;;;;;;10.27;2.77;;;10.70;99.90;;;;;;5077039;28;20284;-71
2022/09/27 07:45:59;;;;;;;9.23;2.53;;;10.80;99.90;;;;;;5077880;28;20274;-71
2022/09/27 07:48:26;;;;;;;5.57;2.20;;;10.80;99.90;;;;;;5079920;28;20310;-73
2022/09/27 07:50:55;;;;;;;8.13;2.57;;;10.90;99.90;;;;;;5066919;28;20213;-72
2022/09/27 07:53:23;;;;;;;10.20;2.80;;;10.90;99.90;;;;;;5067790;28;20290;-72
2022/09/27 07:55:52;;;;;;;5.53;2.30;;;11.00;99.90;;;;;;5079728;28;20199;-73
2022/09/27 07:58:19;;;;;;;8.07;2.60;;;11.00;99.90;;;;;;5078825;28;20274;-72
2022/09/27 08:00:47;;;;;;;4.67;2.27;;;11.10;99.90;;;;;;5081055;28;20304;-74
2022/09/27 08:03:16;;;;;;;6.27;2.40;;;11.10;99.90;;;;;;5079640;28;20660;-73
2022/09/27 08:05:46;;;;;;;7.30;2.50;;;11.10;99.90;;;;;;5079077;28;20204;-73
2022/09/27 08:08:14;;;;;;;11.03;2.30;;;11.20;99.90;;;;;;5085074;28;20220;-72
2022/09/27 08:10:43;;;;;;;5.33;2.40;;;11.30;99.90;;;;;;5080255;28;20573;-73
2022/09/27 08:13:10;;;;;;;6.47;2.00;;;11.30;99.90;;;;;;5079730;28;20196;-71
2022/09/27 08:15:40;;;;;;;6.70;2.43;;;11.40;99.90;;;;;;5080018;28;20193;-72
2022/09/27 08:18:10;;;;;;;6.50;2.27;;;11.50;99.90;;;;;;5081469;28;20228;-72
2022/09/27 08:20:38;;;;;;;6.90;2.50;;;;;;;;;;5075182;28;20228;-73
2022/09/27 08:23:05;;;;;;;4.77;1.90;;;11.80;99.90;;;;;;5078769;28;20361;-72
2022/09/27 08:25:32;;;;;;;4.13;1.63;;;12.00;99.90;;;;;;5061026;28;20207;-73
2022/09/27 08:28:02;;;;;;;3.83;1.50;;;12.40;99.90;;;;;;5077944;28;20704;-71
2022/09/27 08:30:31;;;;;;;3.07;1.30;;;12.60;99.90;;;;;;5078237;28;20196;-74
2022/09/27 08:32:59;;;;;;;6.93;1.87;;;;;;;;;;5076760;28;20293;-73
2022/09/27 08:35:27;;;;;;;6.90;1.80;;;12.80;99.90;;;;;;5079398;28;20238;-72
2022/09/27 08:37:57;;;;;;;3.23;1.30;;;13.10;99.90;;;;;;5080133;28;20200;-71
2022/09/27 08:40:35;;;;;;;4.27;1.20;;;13.40;99.90;;;;;;5063513;28;20676;-72
2022/09/27 08:43:18;;;;;;;3.07;1.20;;;13.60;99.90;;;;;;5080882;28;20234;-72
2022/09/27 08:46:20;;;;;;;3.33;1.37;;;13.60;99.90;;;;;;5080545;28;20213;-71
2022/09/27 08:48:58;;;;;;;4.10;1.13;;;13.60;99.90;;;;;;5055601;28;20621;-71
2022/09/27 08:51:30;;;;;;;3.50;1.23;;;13.30;99.90;;;;;;5062991;28;20202;-72
2022/09/27 08:54:02;;;;;;;6.90;1.53;;;13.10;99.90;;;;;;5074951;28;20246;-72
2022/09/27 08:56:30;;;;;;;3.13;1.03;;;13.00;99.90;;;;;;5062250;28;20304;-71
2022/09/27 08:59:14;;;;;;;3.73;1.30;;;12.90;99.90;;;;;;5075777;28;20238;-72
2022/09/27 09:01:41;;;;;;;3.70;1.23;;;12.70;99.90;;;;;;5080910;28;20215;-71
2022/09/27 09:04:11;;;;;;;5.67;1.30;;;12.60;99.90;;;;;;5055798;28;20279;-72
2022/09/27 09:07:31;;;;;;;4.23;1.43;;;12.60;99.90;;;;;;5080207;28;20729;-72
2022/09/27 09:14:07;;;;;;;1.97;0.93;;;12.50;99.90;;;;;;5079536;28;20230;-73
2022/09/27 09:16:58;;;;;;;1.77;0.90;;;12.50;99.90;;;;;;5081338;28;20544;-70
2022/09/27 09:19:44;;;;;;;2.33;1.00;;;12.50;99.90;;;;;;5071009;28;20286;-72
2022/09/27 09:22:16;;;;;;;3.57;1.00;;;12.60;99.90;;;;;;5073397;28;20223;-72
2022/09/27 09:24:51;;;;;;;2.67;1.10;;;12.60;99.90;;;;;;5081109;28;20196;-71
2022/09/27 09:27:28;;;;;;;2.50;1.13;;;12.70;99.90;;;;;;5081124;28;20225;-71
2022/09/27 09:30:17;;;;;;;3.23;1.20;;;12.80;99.90;;;;;;5077540;28;20796;-71
2022/09/27 09:33:06;;;;;;;2.67;1.07;;;12.90;99.90;;;;;;5080887;28;20274;-71
2022/09/27 09:36:00;;;;;;;3.83;0.97;;;13.10;99.90;;;;;;5076397;28;20274;-73
2022/09/27 09:38:53;;;;;;;2.17;0.80;;;13.20;99.90;;;;;;5065956;28;20261;-71
2022/09/27 09:41:27;;;;;;;2.17;0.80;;;13.40;99.90;;;;;;5078394;28;20220;-72
2022/09/27 09:44:17;;;;;;;1.17;0.77;;;13.60;99.90;;;;;;5082821;28;20199;-71
2022/09/27 09:46:56;;;;;;;1.90;0.90;;;13.70;99.90;;;;;;5083108;28;20232;-72
2022/09/27 09:49:30;;;;;;;1.63;0.80;;;13.80;99.90;;;;;;5080751;28;20291;-71
2022/09/27 09:52:11;;;;;;;3.53;1.33;;;13.70;99.90;;;;;;5061779;28;20230;-72
2022/09/27 09:55:05;;;;;;;3.60;0.90;;;13.80;99.90;;;;;;5079566;28;20664;-73
2022/09/27 09:58:03;;;;;;;2.57;0.80;;;13.80;99.90;;;;;;5085606;28;20295;-73
2022/09/27 10:00:30;;;;;;;2.27;0.90;;;13.80;99.90;;;;;;5076692;28;20311;-72
2022/09/27 10:02:58;;;;;;;2.00;1.50;;;13.80;99.90;;;;;;5083136;28;20213;-72
2022/09/27 10:05:27;;;;;;;3.03;1.37;;;13.80;99.90;;;;;;5084646;28;20211;-73
2022/09/27 10:07:59;;;;;;;2.87;1.00;;;13.90;99.90;;;;;;5086904;28;20239;-71
2022/09/27 10:10:26;;;;;;;3.17;1.10;;;13.80;99.90;;;;;;5084743;28;20236;-72
2022/09/27 10:12:55;;;;;;;1.97;0.97;;;13.90;99.90;;;;;;5082867;28;20298;-73
2022/09/27 10:15:25;;;;;;;3.60;1.83;;;13.80;99.90;;;;;;5079797;28;20200;-73
2022/09/27 10:17:56;;;;;;;4.40;1.40;;;13.80;99.90;;;;;;5083792;28;20211;-74
2022/09/27 10:20:37;;;;;;;3.63;1.30;;;13.80;99.90;;;;;;5080309;28;20250;-72
2022/09/27 10:23:12;;;;;;;4.40;1.83;;;13.90;99.90;;;;;;5081686;28;20216;-71
2022/09/27 10:25:52;;;;;;;3.60;1.20;;;13.90;99.90;;;;;;5084116;28;20191;-72
2022/09/27 10:28:32;;;;;;;5.20;1.27;;;13.90;99.90;;;;;;5082001;28;20205;-73
2022/09/27 10:31:02;;;;;;;2.30;1.10;;;13.80;99.90;;;;;;5080774;28;20216;-71
2022/09/27 10:33:30;;;;;;;4.47;1.17;;;13.80;99.90;;;;;;5082303;28;20236;-71
2022/09/27 10:35:58;;;;;;;2.20;1.03;;;13.70;99.90;;;;;;5079357;28;20605;-71
2022/09/27 10:38:34;;;;;;;3.63;1.10;;;13.70;99.90;;;;;;5081796;28;20185;-72
2022/09/27 10:41:30;;;;;;;3.07;0.90;;;13.60;99.90;;;;;;5076985;28;20310;-72
2022/09/27 10:44:17;;;;;;;2.30;0.83;;;13.50;99.90;;;;;;5075117;28;20204;-72
2022/09/27 10:46:46;;;;;;;2.27;1.00;;;13.50;99.90;;;;;;5078299;28;20441;-73
2022/09/27 10:49:33;;;;;;;3.70;0.97;;;13.50;99.90;;;;;;5083072;28;20291;-72
2022/09/27 10:52:06;;;;;;;2.00;1.00;;;13.50;99.90;;;;;;5080420;28;21092;-72
2022/09/27 10:54:36;;;;;;;2.10;0.90;;;13.50;99.90;;;;;;5074595;28;20636;-72
2022/09/27 10:57:14;;;;;;;2.50;0.90;;;13.60;99.90;;;;;;5083691;28;20726;-70
2022/09/27 10:59:44;;;;;;;2.13;0.93;;;13.50;99.90;;;;;;5075813;28;20725;-72
2022/09/27 11:02:35;;;;;;;1.93;0.90;;;13.40;99.90;;;;;;5077879;28;20601;-73
2022/09/27 11:05:33;;;;;;;2.33;1.20;;;13.40;99.90;;;;;;5066179;28;20625;-72
2022/09/27 11:08:31;;;;;;;2.17;0.90;;;13.40;99.90;;;;;;5077789;28;20202;-73
2022/09/27 11:11:13;;;;;;;2.47;1.10;;;13.30;99.90;;;;;;5078124;28;20283;-72
2022/09/27 11:13:40;;;;;;;2.90;0.90;;;13.30;99.90;;;;;;5075485;28;20619;-71
2022/09/27 11:16:22;;;;;;;2.73;1.27;;;13.40;99.90;;;;;;5077431;28;20574;-72
2022/09/27 11:18:59;;;;;;;2.03;1.20;;;13.40;99.90;;;;;;5075931;28;20334;-71
2022/09/27 11:21:44;;;;;;;6.27;2.80;;;13.40;99.90;;;;;;5078123;28;20211;-72
2022/09/27 11:24:56;;;;;;;2.43;1.00;;;13.30;99.90;;;;;;5078678;28;20298;-72
2022/09/27 11:27:51;;;;;;;3.23;1.10;;;13.30;99.90;;;;;;5079134;28;20887;-72
2022/09/27 11:30:22;;;;;;;2.43;1.00;;;13.20;99.90;;;;;;5077545;28;20270;-72
2022/09/27 11:33:17;;;;;;;2.93;1.00;;;13.30;99.90;;;;;;5079380;28;20609;-73
2022/09/27 11:36:04;;;;;;;3.37;1.03;;;13.30;99.90;;;;;;5058223;28;20303;-72
2022/09/27 11:38:45;;;;;;;5.20;1.07;;;13.20;99.90;;;;;;5077690;28;20548;-71
2022/09/27 11:41:28;;;;;;;2.93;1.30;;;13.10;99.90;;;;;;5076447;28;20224;-73
2022/09/27 11:44:21;;;;;;;5.63;2.03;;;13.10;99.90;;;;;;5078929;28;20640;-71
2022/09/27 11:47:16;;;;;;;1.53;0.90;;;13.10;99.90;;;;;;5073272;28;20718;-70
2022/09/27 11:49:54;;;;;;;5.57;3.10;;;13.10;99.90;;;;;;5062662;28;20208;-73
2022/09/27 11:52:47;;;;;;;3.70;1.40;;;13.00;99.90;;;;;;5081607;28;21052;-73
2022/09/27 11:55:28;;;;;;;2.90;1.07;;;13.10;99.90;;;;;;5079713;28;20299;-73
2022/09/27 11:58:08;;;;;;;2.97;1.70;;;13.20;99.90;;;;;;5076653;28;20273;-72
2022/09/27 12:00:50;;;;;;;5.43;1.67;;;13.20;99.90;;;;;;5075450;28;20625;-73
2022/09/27 12:03:35;;;;;;;3.00;1.23;;;13.30;99.90;;;;;;5081482;28;20303;-74
2022/09/27 12:06:09;;;;;;;3.40;1.17;;;13.40;99.90;;;;;;5073958;28;20208;-72
2022/09/27 12:08:57;;;;;;;5.43;1.10;;;13.50;99.90;;;;;;5085007;28;20286;-72
2022/09/27 12:11:37;;;;;;;1.93;1.07;;;13.60;99.90;;;;;;5078138;28;20686;-72
2022/09/27 12:14:28;;;;;;;5.70;1.80;;;13.50;99.90;;;;;;5062034;28;20702;-71
2022/09/27 12:16:56;;;;;;;4.60;1.40;;;13.40;99.90;;;;;;5074925;28;20255;-71
2022/09/27 12:19:26;;;;;;;4.47;1.40;;;13.30;99.90;;;;;;5076931;28;20210;-72
2022/09/27 12:21:56;;;;;;;3.63;1.73;;;13.40;99.90;;;;;;5074741;28;20268;-71
2022/09/27 12:24:24;;;;;;;4.23;1.23;;;13.40;99.90;;;;;;5081143;28;20195;-72
2022/09/27 12:26:55;;;;;;;1.90;1.03;;;13.50;99.90;;;;;;5076215;28;20672;-74
2022/09/27 12:29:25;;;;;;;4.30;1.20;;;13.50;99.90;;;;;;5079415;28;20192;-74
2022/09/27 12:32:21;;;;;;;2.03;0.90;;;13.50;99.90;;;;;;5077407;28;20220;-73
2022/09/27 12:35:22;;;;;;;2.87;0.80;;;13.40;99.90;;;;;;5081854;28;20650;-73
2022/09/27 12:38:00;;;;;;;1.73;0.80;;;13.40;99.90;;;;;;5084796;28;20208;-73
2022/09/27 12:40:44;;;;;;;2.67;1.00;;;13.40;99.90;;;;;;5080200;28;20187;-71
2022/09/27 12:43:31;;;;;;;1.80;1.00;;;13.30;99.90;;;;;;5080056;28;21005;-73
2022/09/27 12:46:34;;;;;;;3.67;1.70;;;13.30;99.90;;;;;;5073828;28;20226;-70
2022/09/27 12:49:17;;;;;;;3.03;1.47;;;13.20;99.90;;;;;;5071810;28;20199;-72
2022/09/27 12:52:07;;;;;;;1.60;0.90;;;13.20;99.90;;;;;;5076341;28;20193;-72
2022/09/27 12:54:46;;;;;;;1.73;1.00;;;13.10;99.90;;;;;;5076522;28;20220;-72
2022/09/27 12:57:28;;;;;;;5.67;1.23;;;13.00;99.90;;;;;;5075507;28;20311;-72
2022/09/27 13:00:09;;;;;;;1.53;1.10;;;13.10;99.90;;;;;;5078745;28;20200;-72
2022/09/27 13:02:38;;;;;;;2.10;1.10;;;13.00;99.90;;;;;;5079318;28;20296;-73
2022/09/27 13:05:54;;;;;;;1.87;1.23;;;12.90;99.90;;;;;;5072116;28;20215;-71
2022/09/27 13:08:43;;;;;;;3.90;1.30;;;12.90;99.90;;;;;;5082517;28;20233;-72
2022/09/27 13:11:46;;;;;;;2.10;1.20;;;12.90;99.90;;;;;;5072034;28;20685;-72
2022/09/27 13:14:27;;;;;;;2.67;1.30;;;12.90;99.90;;;;;;5081159;28;20288;-70
2022/09/27 13:16:54;;;;;;;2.10;1.10;;;12.90;99.90;;;;;;5081080;28;20219;-71
2022/09/27 13:19:36;;;;;;;2.83;1.30;;;13.00;99.90;;;;;;5056395;28;20283;-70
2022/09/27 13:22:06;;;;;;;3.63;1.57;;;13.00;99.90;;;;;;5073541;28;20297;-71
2022/09/27 13:24:43;;;;;;;1.87;0.90;;;13.10;99.90;;;;;;5076930;28;20196;-71
2022/09/27 13:27:22;;;;;;;2.67;1.13;;;13.00;99.90;;;;;;5081654;28;20314;-72
2022/09/27 13:29:50;;;;;;;2.40;0.90;;;12.90;99.90;;;;;;5075278;28;20207;-71
2022/09/27 13:32:18;;;;;;;2.30;0.97;;;12.90;99.90;;;;;;5073740;28;20235;-71
2022/09/27 13:34:53;;;;;;;1.23;0.87;;;12.90;99.90;;;;;;5079285;28;20204;-72
2022/09/27 13:37:44;;;;;;;1.10;0.70;;;12.90;99.90;;;;;;5053958;28;20283;-70